Clezio — FAB4151 — position and weather

sailwx.info

Track history (hours):
 
Tides and Currents Weather Stations Pressure Air Temp Water Temp Dewpoint Dewpoint Depression Visibility Wind Speed Wind Dir Waves Ship Positions

Clezio

Last reported at 2017-Nov-19 16:31 UTC. Time now 2017-Nov-24 09:37 UTC.
Position N 49°29' E 000°06'.

Length 12 m.

Type: Sailing vessel. MMSI: 227201280.

Date/timePositionNaut miles runAvg speedWind from/ knotsBaromVisibWave heightAir tempDewpointWater temp
2017-Nov-19 16:31N 49°29' E 000°06'0 0.0
2017-Nov-19 16:27N 49°29' E 000°06'1 3.1
2017-Nov-19 15:59N 49°29' E 000°03'3 5.9
2017-Nov-19 15:30N 49°28' W 000°00'3 5.6
2017-Nov-19 15:00N 49°26' W 000°04'3 5.5
2017-Nov-19 14:30N 49°24' W 000°07'3 5.4
2017-Nov-19 14:00N 49°22' W 000°10'2 4.8
2017-Nov-19 13:29N 49°21' W 000°12'3 1.6
2017-Nov-19 11:37N 49°21' W 000°17'1 0.9
2017-Nov-19 10:15N 49°20' W 000°15'0 1.2
2017-Nov-19 10:00N 49°20' W 000°15'4 0.2
2017-Nov-18 16:16N 49°19' W 000°08'2 5.9
2017-Nov-18 16:00N 49°20' W 000°08'3 6.3
2017-Nov-18 15:29N 49°23' W 000°06'3 6.8
2017-Nov-18 15:00N 49°26' W 000°03'3 6.5
2017-Nov-18 14:30N 49°29' W 000°01'2 4.8
2017-Nov-18 14:00N 49°30' E 000°03'2 4.0
2017-Nov-18 13:30N 49°29' E 000°06'0 0.1
2017-Nov-18 12:54N 49°29' E 000°06'0 0.0
2017-Nov-18 12:26N 49°29' E 000°06'0 0.0
2017-Nov-18 11:56N 49°29' E 000°06'0 0.0
2017-Nov-18 11:27N 49°29' E 000°06'  
2017-Nov-14 11:20N 49°29' E 000°06'0 0.0
2017-Nov-14 10:59N 49°29' E 000°06'0 0.0
2017-Nov-14 10:23N 49°29' E 000°06'0 0.0
2017-Nov-12 11:39N 49°29' E 000°06'0 0.0
2017-Nov-12 11:27N 49°29' E 000°06'0 0.0
2017-Nov-11 16:10N 49°29' E 000°06'0 0.0
2017-Nov-11 15:58N 49°29' E 000°06'0 0.0
2017-Nov-11 15:28N 49°29' E 000°06'0 0.0
2017-Nov-11 14:58N 49°29' E 000°06'0 0.0
2017-Nov-10 16:37N 49°29' E 000°06'0 0.0
2017-Nov-10 16:25N 49°29' E 000°06'0 0.0
2017-Nov-10 15:55N 49°29' E 000°06'0 0.0
2017-Nov-10 15:25N 49°29' E 000°06'0 0.0
2017-Nov-10 14:55N 49°29' E 000°06'0 0.0
2017-Nov-10 14:22N 49°29' E 000°06'0 0.0
2017-Nov-10 13:58N 49°29' E 000°06'0 0.0
2017-Nov-10 13:19N 49°29' E 000°06'0 0.0
2017-Nov-10 12:58N 49°29' E 000°06'0 0.0
2017-Nov-10 12:25N 49°29' E 000°06'0 0.0
2017-Nov-10 11:55N 49°29' E 000°06'0 0.0
2017-Nov-10 11:25N 49°29' E 000°06'0 0.0
2017-Nov-10 10:58N 49°29' E 000°06'0 0.0
2017-Nov-10 10:25N 49°29' E 000°06'0 0.0
2017-Nov-10 09:55N 49°29' E 000°06'  
Track history (hours):
 
Tides and Currents Weather Stations Pressure Air Temp Water Temp Dewpoint Dewpoint Depression Visibility Wind Speed Wind Dir Waves Ship Positions

Clezio

Last reported at 2017-Nov-19 16:31 UTC. Time now 2017-Nov-24 09:37 UTC.
Position N 49°29' E 000°06'.

Length 12 m.

Type: Sailing vessel. MMSI: 227201280.

Date/timePositionNaut miles runAvg speedWind from/ knotsBaromVisibWave heightAir tempDewpointWater temp
2017-Nov-19 16:31N 49°29' E 000°06'0 0.0
2017-Nov-19 16:27N 49°29' E 000°06'1 3.1
2017-Nov-19 15:59N 49°29' E 000°03'3 5.9
2017-Nov-19 15:30N 49°28' W 000°00'3 5.6
2017-Nov-19 15:00N 49°26' W 000°04'3 5.5
2017-Nov-19 14:30N 49°24' W 000°07'3 5.4
2017-Nov-19 14:00N 49°22' W 000°10'2 4.8
2017-Nov-19 13:29N 49°21' W 000°12'3 1.6
2017-Nov-19 11:37N 49°21' W 000°17'1 0.9
2017-Nov-19 10:15N 49°20' W 000°15'0 1.2
2017-Nov-19 10:00N 49°20' W 000°15'4 0.2
2017-Nov-18 16:16N 49°19' W 000°08'2 5.9
2017-Nov-18 16:00N 49°20' W 000°08'3 6.3
2017-Nov-18 15:29N 49°23' W 000°06'3 6.8
2017-Nov-18 15:00N 49°26' W 000°03'3 6.5
2017-Nov-18 14:30N 49°29' W 000°01'2 4.8
2017-Nov-18 14:00N 49°30' E 000°03'2 4.0
2017-Nov-18 13:30N 49°29' E 000°06'0 0.1
2017-Nov-18 12:54N 49°29' E 000°06'0 0.0
2017-Nov-18 12:26N 49°29' E 000°06'0 0.0
2017-Nov-18 11:56N 49°29' E 000°06'0 0.0
2017-Nov-18 11:27N 49°29' E 000°06'  
2017-Nov-14 11:20N 49°29' E 000°06'0 0.0
2017-Nov-14 10:59N 49°29' E 000°06'0 0.0
2017-Nov-14 10:23N 49°29' E 000°06'0 0.0
2017-Nov-12 11:39N 49°29' E 000°06'0 0.0
2017-Nov-12 11:27N 49°29' E 000°06'0 0.0
2017-Nov-11 16:10N 49°29' E 000°06'0 0.0
2017-Nov-11 15:58N 49°29' E 000°06'0 0.0
2017-Nov-11 15:28N 49°29' E 000°06'0 0.0
2017-Nov-11 14:58N 49°29' E 000°06'0 0.0
2017-Nov-10 16:37N 49°29' E 000°06'0 0.0
2017-Nov-10 16:25N 49°29' E 000°06'0 0.0
2017-Nov-10 15:55N 49°29' E 000°06'0 0.0
2017-Nov-10 15:25N 49°29' E 000°06'0 0.0
2017-Nov-10 14:55N 49°29' E 000°06'0 0.0
2017-Nov-10 14:22N 49°29' E 000°06'0 0.0
2017-Nov-10 13:58N 49°29' E 000°06'0 0.0
2017-Nov-10 13:19N 49°29' E 000°06'0 0.0
2017-Nov-10 12:58N 49°29' E 000°06'0 0.0
2017-Nov-10 12:25N 49°29' E 000°06'0 0.0
2017-Nov-10 11:55N 49°29' E 000°06'0 0.0
2017-Nov-10 11:25N 49°29' E 000°06'0 0.0
2017-Nov-10 10:58N 49°29' E 000°06'0 0.0
2017-Nov-10 10:25N 49°29' E 000°06'0 0.0
2017-Nov-10 09:55N 49°29' E 000°06'  

Dump ship's entire track history